SBSCSBRJ

Guest
Details From SBSC - SANTA CRUZ
To SBRJ - Santos-Dumont
Flight Number -
Tags decoded
Created
Modified
Stats Distance 31 nm / 58 km
Max Altitude 0 ft / 0 m
Waypoints 3
Social Downloads 0
Likes 0
Share VATSIM

Download

Looking for another format? Having issues loading an existing format? Contact us
Advertisement - Login to hide

Notes

Requested: SBSC AFS SBRJ

Route

SBSC AFS SBRJ

ID Type Via Altitude Latitude Longitude Leg Dist Tot Dist Heading (true) Name
O SBSC APT - 0 ft / 0 m -22.93249˚ -43.71909˚ - 0 nm - SANTA CRUZ
AFS NDB - 0 ft / 0 m -22.86697˚ -43.36687˚ 19 nm 19 nm 79° / 79° AFONSOS NDB
O SBRJ APT - 0 ft / 0 m -22.91046˚ -43.16313˚ 11 nm 31 nm 103° / 103° Santos-Dumont

Altitude Profile

Advertisement - Login to hide

SBSC

Details ICAO SBSC (STU)
Name SANTA CRUZ
Region Brazil
Timezone America/Sao_Paulo (UTC-2.0)
Stats Elevation 10 ft / 3 m (AMSL)
Location -22.932489° -43.719090°
Runways 1
Magnetic Variation 22.586° W

METAR

SBSC 130300Z 05003KT 9999 FEW020 BKN050 21/20 Q1018

Decode

TAF

TAF SBSC 122000Z 1300/1312 10010KT 9999 SCT015 BKN040TN22/1308Z TX24/1311Z PROB30 1308/1310 07005KT 4000 BR BKN012 RMK PGX

Decode

Departure Runways

ID Width Length Bearing (true) Bearing (mag) Surface Threshold Offset Overrun Length
05 148 ft / 45 m 9,039 ft / 2,755 m 24.13° 46.72° Asphalt 0 ft / 0 m 1,145 ft / 349 m
23 148 ft / 45 m 9,039 ft / 2,755 m 204.12° 226.71° Asphalt 0 ft / 0 m 1,145 ft / 349 m

SBRJ

Details ICAO SBRJ (SDU)
Name Santos-Dumont
Region Brazil
Timezone Unknown (UTC+0.0)
Stats Elevation 11 ft / 3 m (AMSL)
Location -22.910460° -43.163133°
Runways 2
Magnetic Variation 22.781° W

METAR

SBRJ 130400Z 01005KT 9999 SCT018 BKN050 22/20 Q1017

Decode

TAF

TAF SBRJ 122000Z 1300/1312 10010KT 9999 SCT015 BKN040TN23/1308Z TX25/1311Z PROB30 1308/1310 07005KT 4000 BR BKN012 RMK PGX

Decode

Destination Runways

ID Width Length Bearing (true) Bearing (mag) Surface Threshold Offset Overrun Length
02L 98 ft / 30 m 4,154 ft / 1,266 m 358.02° 20.80° Asphalt 0 ft / 0 m 80 ft / 24 m
02R 138 ft / 42 m 4,361 ft / 1,329 m 358.01° 20.79° Asphalt 0 ft / 0 m 80 ft / 24 m
20L 138 ft / 42 m 4,361 ft / 1,329 m 178.01° 200.79° Asphalt 0 ft / 0 m 80 ft / 24 m
20R 98 ft / 30 m 4,154 ft / 1,266 m 178.02° 200.80° Asphalt 0 ft / 0 m 95 ft / 29 m

Approach Navaids

Runway Type Ident Frequency Range Bearing (true) Bearing (mag) Slope Elevation
20L Localiser IRJ 111.10 MHz 18 nm / 33 km 172.42° 195.20° - 11 ft / 3 m (AMSL)

Popular Alternatives